AirNav   Everest Fuels
 
 515 users online  

WI87 Pine River Airport
Merrill, Wisconsin, USA

GOING TO MERRILL?


FAA INFORMATION EFFECTIVE 26 JANUARY 2023

Location

FAA Identifier: WI87
Lat/Long: 45-12-12.0000N 089-31-28.0000W
45-12.200000N 089-31.466667W
45.2033333,-89.5244444
(estimated)
Elevation: 1370 ft. / 418 m (estimated)
Variation: 01W (1990)
From city: 8 miles E of MERRILL, WI
Time zone: UTC -6 (UTC -5 during Daylight Saving Time)
Zip code: 54452

Airport Operations

Airport use: Private use. Permission required prior to landing
Activation date: 07/1995
Control tower: no
ARTCC: MINNEAPOLIS CENTER
FSS: GREEN BAY FLIGHT SERVICE STATION
Attendance: UNATNDD
Wind indicator: yes
Segmented circle: no

Airport Communications

WX AWOS-3 at RRL (8 nm W): 119.925 (715-539-8422)
WX ASOS at AUW (17 nm S): 125.925 (715-843-7215)
WX AWOS-3 at AIG (18 nm E): 119.075 (715-627-2869)
WX AWOS-3 at TKV (20 nm NW): 118.250 (715-453-5716)

Nearby radio navigation aids

VOR radial/distance  VOR name  Freq  Var
RHIr184/26.0RHINELANDER VOR/DME109.2002E

Airport Services

Runway Information

Runway 9/27

Dimensions: 1550 x 80 ft. / 472 x 24 m
Surface: turf, in good condition
Runway edge markings: 09/27 MKD WITH ORANGE CONES ALONG RY EDGE & BLACK/YELLOW 'L' PANELS AT EACH RY END.
Operational restrictions: NOT PLOWED IN WINTER.
RUNWAY 9  RUNWAY 27
Traffic pattern: leftleft
Obstructions: 50 ft. trees, 1090 ft. from runway20 ft. trees, 400 ft. from runway

Airport Ownership and Management from official FAA records

Ownership: Privately-owned
Owner: KEVIN & BRIAN NEITZEL
W 2021 TOWN LINE RD
MERRILL, WI 54452
Phone 715-536-2288
Manager: KEVIN NEITZEL
W 2021 TOWN LINE RD
MERRILL, WI 54452
Phone 414-771-4068

Airport Operational Statistics

Aircraft based on the field: 5
Single engine airplanes: 4
Ultralights: 1
    

Additional Remarks

FOR CD CTC MINNEAPOLIS ARTCC AT 651-463-5588.

Instrument Procedures

There are no published instrument procedures at WI87.

Some nearby airports with instrument procedures:

KRRL - Merrill Municipal Airport (8 nm W)
KAUW - Wausau Downtown Airport (17 nm S)
KAIG - Langlade County Airport (18 nm E)
KTKV - Tomahawk Regional Airport (20 nm NW)
KRHI - Rhinelander/Oneida County Airport (26 nm N)
 
Loc | Ops | Rwys | IFR | FBO | Links
Com | Nav | Svcs | Stats | Notes
Aerial photo
No photo
 
Sectional chart

 
Airport distance calculator
Flying to Pine River Airport? Find the distance to fly.

From to WI87

Sunrise and sunset
Times for 27-Jan-2023
 Local
(UTC-6)
 Zulu
(UTC)
Morning civil twilight06:5312:53
Sunrise07:2513:25
Sunset16:5722:57
Evening civil twilight17:2923:29

Current date and time
Zulu (UTC)  27-Jan-2023 10:36:01
Local (UTC-6)  27-Jan-2023 04:36:01
 
METAR
KRRL 
8nm W 
271015Z AUTO 17004KT 1 3/4SM -SN OVC008 M12/M14 A2959 RMK AO2 T11221137 TSNO
KAUW 
17nm S 
270954Z AUTO 13010KT 7SM OVC006 M12/M14 A2961 RMK AO2 SNE14 SLP053 P0000 I1000 T11171139
KTKV 
20nm NW 
271015Z AUTO 00000KT 3SM OVC008 M12/M14 A2955 RMK AO2 T11251143 PWINO
KAIG 
20nm SE 
271015Z AUTO 16009KT 2 1/2SM -SN OVC005 M14/M15 A2962 RMK AO2 T11401151
TAF
KAUW 
17nm S 
270929Z 2709/2806 15010G16KT P6SM -SN SCT005 OVC035 WS020/21040KT TEMPO 2709/2712 3SM -SN OVC005 FM271200 19012G23KT 2SM -SN BKN013 OVC020 WS020/22040KT TEMPO 2712/2716 1SM -SN OVC010 FM271800 24012G22KT P6SM -SHSN OVC018 FM272000 28016G25KT P6SM BKN025 FM280200 29012G20KT P6SM BKN025
NOTAMs
Click for the latest NOTAMs
NOTAMs are issued by the DoD/FAA and will open in a separate window not controlled by AirNav.

 

 
 

Would you like to see your business listed on this page?

 If your business provides an interesting product or service to pilots, flight crews, aircraft, or users of the Pine River Airport, you should consider listing it here.  To start the listing process, click on the button below
 
Add a business
 

Other Pages about Pine River Airport

Update a link
 
Copyright © AirNav, LLC. All rights reserved. Privacy Policy  Contact